sensor_id;sensor_type;location;lat;lon;timestamp;P1;durP1;ratioP1;P2;durP2;ratioP2
25263;SDS011;13211;51.796;5.808;2022-10-19T00:03:32;8.27;;;2.15;;
25263;SDS011;13211;51.796;5.808;2022-10-19T00:06:09;7.50;;;2.03;;
25263;SDS011;13211;51.796;5.808;2022-10-19T00:08:37;18.58;;;2.70;;
25263;SDS011;13211;51.796;5.808;2022-10-19T00:11:05;14.02;;;2.33;;
25263;SDS011;13211;51.796;5.808;2022-10-19T00:13:33;6.38;;;2.10;;
25263;SDS011;13211;51.796;5.808;2022-10-19T00:16:00;9.90;;;2.40;;
25263;SDS011;13211;51.796;5.808;2022-10-19T00:18:32;9.90;;;2.80;;
25263;SDS011;13211;51.796;5.808;2022-10-19T00:21:05;18.42;;;3.50;;
25263;SDS011;13211;51.796;5.808;2022-10-19T00:23:32;11.35;;;3.58;;
25263;SDS011;13211;51.796;5.808;2022-10-19T00:26:00;14.93;;;3.60;;
25263;SDS011;13211;51.796;5.808;2022-10-19T00:28:31;15.00;;;3.88;;
25263;SDS011;13211;51.796;5.808;2022-10-19T00:33:52;14.95;;;3.33;;
25263;SDS011;13211;51.796;5.808;2022-10-19T00:38:48;8.07;;;3.58;;
25263;SDS011;13211;51.796;5.808;2022-10-19T00:41:18;12.88;;;4.47;;
25263;SDS011;13211;51.796;5.808;2022-10-19T00:43:52;15.60;;;4.25;;
25263;SDS011;13211;51.796;5.808;2022-10-19T00:52:39;12.80;;;4.22;;
25263;SDS011;13211;51.796;5.808;2022-10-19T00:55:13;18.95;;;4.38;;
25263;SDS011;13211;51.796;5.808;2022-10-19T00:57:42;15.15;;;4.30;;
25263;SDS011;13211;51.796;5.808;2022-10-19T01:00:10;13.07;;;4.30;;
25263;SDS011;13211;51.796;5.808;2022-10-19T01:02:38;11.32;;;4.47;;
25263;SDS011;13211;51.796;5.808;2022-10-19T01:05:08;20.95;;;5.22;;
25263;SDS011;13211;51.796;5.808;2022-10-19T01:16:03;10.65;;;4.75;;
25263;SDS011;13211;51.796;5.808;2022-10-19T01:51:26;18.17;;;6.40;;
25263;SDS011;13211;51.796;5.808;2022-10-19T01:54:00;15.52;;;6.47;;
25263;SDS011;13211;51.796;5.808;2022-10-19T01:56:29;18.58;;;6.95;;
25263;SDS011;13211;51.796;5.808;2022-10-19T01:58:57;17.13;;;8.10;;
25263;SDS011;13211;51.796;5.808;2022-10-19T02:01:28;18.58;;;8.30;;
25263;SDS011;13211;51.796;5.808;2022-10-19T02:03:57;28.15;;;7.55;;
25263;SDS011;13211;51.796;5.808;2022-10-19T02:06:26;14.20;;;4.75;;
25263;SDS011;13211;51.796;5.808;2022-10-19T02:08:54;9.50;;;4.47;;
25263;SDS011;13211;51.796;5.808;2022-10-19T02:11:22;17.95;;;5.35;;
25263;SDS011;13211;51.796;5.808;2022-10-19T02:13:57;10.82;;;5.03;;
25263;SDS011;13211;51.796;5.808;2022-10-19T02:16:26;15.43;;;5.95;;
25263;SDS011;13211;51.796;5.808;2022-10-19T02:18:56;18.15;;;6.43;;
25263;SDS011;13211;51.796;5.808;2022-10-19T02:21:25;15.85;;;7.13;;
25263;SDS011;13211;51.796;5.808;2022-10-19T02:23:53;9.88;;;3.83;;
25263;SDS011;13211;51.796;5.808;2022-10-19T02:26:20;7.95;;;2.55;;
25263;SDS011;13211;51.796;5.808;2022-10-19T02:28:48;5.13;;;2.50;;
25263;SDS011;13211;51.796;5.808;2022-10-19T02:31:17;8.88;;;2.70;;
25263;SDS011;13211;51.796;5.808;2022-10-19T02:33:44;4.75;;;2.45;;
25263;SDS011;13211;51.796;5.808;2022-10-19T02:36:12;10.02;;;2.67;;
25263;SDS011;13211;51.796;5.808;2022-10-19T02:38:43;8.25;;;2.42;;
25263;SDS011;13211;51.796;5.808;2022-10-19T02:43:41;6.80;;;3.15;;
25263;SDS011;13211;51.796;5.808;2022-10-19T02:46:13;7.53;;;3.60;;
25263;SDS011;13211;51.796;5.808;2022-10-19T02:48:41;7.45;;;4.00;;
25263;SDS011;13211;51.796;5.808;2022-10-19T02:51:26;10.80;;;4.28;;
25263;SDS011;13211;51.796;5.808;2022-10-19T02:53:53;15.00;;;5.15;;
25263;SDS011;13211;51.796;5.808;2022-10-19T02:56:25;17.83;;;6.47;;
25263;SDS011;13211;51.796;5.808;2022-10-19T02:58:52;10.30;;;5.82;;
25263;SDS011;13211;51.796;5.808;2022-10-19T03:01:22;13.17;;;6.53;;
25263;SDS011;13211;51.796;5.808;2022-10-19T03:03:50;11.60;;;6.28;;
25263;SDS011;13211;51.796;5.808;2022-10-19T03:06:18;13.65;;;5.50;;
25263;SDS011;13211;51.796;5.808;2022-10-19T03:08:46;7.15;;;2.63;;
25263;SDS011;13211;51.796;5.808;2022-10-19T03:11:18;4.03;;;2.80;;
25263;SDS011;13211;51.796;5.808;2022-10-19T03:13:45;9.88;;;4.55;;
25263;SDS011;13211;51.796;5.808;2022-10-19T03:16:18;14.50;;;7.43;;
25263;SDS011;13211;51.796;5.808;2022-10-19T03:18:49;16.65;;;8.80;;
25263;SDS011;13211;51.796;5.808;2022-10-19T03:21:17;19.48;;;8.90;;
25263;SDS011;13211;51.796;5.808;2022-10-19T03:23:45;19.10;;;8.68;;
25263;SDS011;13211;51.796;5.808;2022-10-19T03:26:13;17.15;;;8.13;;
25263;SDS011;13211;51.796;5.808;2022-10-19T03:28:41;18.67;;;8.95;;
25263;SDS011;13211;51.796;5.808;2022-10-19T03:31:09;13.48;;;6.18;;
25263;SDS011;13211;51.796;5.808;2022-10-19T03:33:36;13.38;;;5.82;;
25263;SDS011;13211;51.796;5.808;2022-10-19T03:38:54;14.43;;;6.70;;
25263;SDS011;13211;51.796;5.808;2022-10-19T03:49:59;13.23;;;6.97;;
25263;SDS011;13211;51.796;5.808;2022-10-19T04:11:13;16.77;;;6.90;;
25263;SDS011;13211;51.796;5.808;2022-10-19T04:13:41;15.07;;;7.10;;
25263;SDS011;13211;51.796;5.808;2022-10-19T04:16:09;13.93;;;7.07;;
25263;SDS011;13211;51.796;5.808;2022-10-19T04:18:42;17.27;;;6.32;;
25263;SDS011;13211;51.796;5.808;2022-10-19T04:21:46;18.13;;;6.63;;
25263;SDS011;13211;51.796;5.808;2022-10-19T04:24:15;17.45;;;6.93;;
25263;SDS011;13211;51.796;5.808;2022-10-19T04:31:02;14.98;;;5.65;;
25263;SDS011;13211;51.796;5.808;2022-10-19T04:37:48;12.93;;;5.28;;
25263;SDS011;13211;51.796;5.808;2022-10-19T04:44:27;12.88;;;6.38;;
25263;SDS011;13211;51.796;5.808;2022-10-19T04:51:03;14.88;;;5.60;;
25263;SDS011;13211;51.796;5.808;2022-10-19T04:57:50;8.40;;;4.70;;
25263;SDS011;13211;51.796;5.808;2022-10-19T05:04:36;13.23;;;6.55;;
25263;SDS011;13211;51.796;5.808;2022-10-19T05:37:53;13.65;;;7.32;;
25263;SDS011;13211;51.796;5.808;2022-10-19T05:48:47;11.85;;;6.63;;
25263;SDS011;13211;51.796;5.808;2022-10-19T06:02:49;14.45;;;6.40;;
25263;SDS011;13211;51.796;5.808;2022-10-19T06:05:23;7.13;;;3.22;;
25263;SDS011;13211;51.796;5.808;2022-10-19T06:07:52;10.48;;;3.47;;
25263;SDS011;13211;51.796;5.808;2022-10-19T06:10:19;5.13;;;3.63;;
25263;SDS011;13211;51.796;5.808;2022-10-19T06:12:48;4.93;;;2.30;;
25263;SDS011;13211;51.796;5.808;2022-10-19T06:15:15;5.47;;;3.40;;
25263;SDS011;13211;51.796;5.808;2022-10-19T06:17:43;12.77;;;5.78;;
25263;SDS011;13211;51.796;5.808;2022-10-19T06:20:10;10.38;;;6.72;;
25263;SDS011;13211;51.796;5.808;2022-10-19T06:22:39;8.02;;;4.60;;
25263;SDS011;13211;51.796;5.808;2022-10-19T06:25:07;5.18;;;1.88;;
25263;SDS011;13211;51.796;5.808;2022-10-19T06:27:35;2.83;;;1.58;;
25263;SDS011;13211;51.796;5.808;2022-10-19T06:30:03;4.90;;;2.17;;
25263;SDS011;13211;51.796;5.808;2022-10-19T06:32:31;8.77;;;3.92;;
25263;SDS011;13211;51.796;5.808;2022-10-19T06:34:59;11.68;;;6.22;;
25263;SDS011;13211;51.796;5.808;2022-10-19T06:37:27;11.13;;;6.50;;
25263;SDS011;13211;51.796;5.808;2022-10-19T06:39:54;11.65;;;6.47;;
25263;SDS011;13211;51.796;5.808;2022-10-19T06:42:22;16.88;;;7.35;;
25263;SDS011;13211;51.796;5.808;2022-10-19T06:44:50;25.83;;;8.02;;
25263;SDS011;13211;51.796;5.808;2022-10-19T06:47:19;15.75;;;7.82;;
25263;SDS011;13211;51.796;5.808;2022-10-19T06:49:49;8.65;;;3.42;;
25263;SDS011;13211;51.796;5.808;2022-10-19T06:52:17;3.42;;;2.28;;
25263;SDS011;13211;51.796;5.808;2022-10-19T06:54:45;5.47;;;1.90;;
25263;SDS011;13211;51.796;5.808;2022-10-19T06:57:12;5.47;;;2.33;;
25263;SDS011;13211;51.796;5.808;2022-10-19T06:59:42;8.07;;;2.53;;
25263;SDS011;13211;51.796;5.808;2022-10-19T07:02:10;4.15;;;2.30;;
25263;SDS011;13211;51.796;5.808;2022-10-19T07:04:37;6.65;;;4.38;;
25263;SDS011;13211;51.796;5.808;2022-10-19T07:07:05;14.35;;;6.63;;
25263;SDS011;13211;51.796;5.808;2022-10-19T07:09:33;13.63;;;7.75;;
25263;SDS011;13211;51.796;5.808;2022-10-19T07:12:00;16.65;;;8.27;;
25263;SDS011;13211;51.796;5.808;2022-10-19T07:14:31;19.52;;;9.10;;
25263;SDS011;13211;51.796;5.808;2022-10-19T07:17:04;26.02;;;10.95;;
25263;SDS011;13211;51.796;5.808;2022-10-19T07:19:32;22.50;;;10.07;;
25263;SDS011;13211;51.796;5.808;2022-10-19T07:22:00;17.63;;;9.30;;
25263;SDS011;13211;51.796;5.808;2022-10-19T07:24:28;15.90;;;9.35;;
25263;SDS011;13211;51.796;5.808;2022-10-19T07:26:56;19.15;;;9.93;;
25263;SDS011;13211;51.796;5.808;2022-10-19T07:29:23;17.60;;;9.73;;
25263;SDS011;13211;51.796;5.808;2022-10-19T07:31:52;17.95;;;9.57;;
25263;SDS011;13211;51.796;5.808;2022-10-19T07:34:19;17.85;;;9.88;;
25263;SDS011;13211;51.796;5.808;2022-10-19T07:36:53;14.52;;;9.48;;
25263;SDS011;13211;51.796;5.808;2022-10-19T07:39:22;22.02;;;9.75;;
25263;SDS011;13211;51.796;5.808;2022-10-19T07:41:50;24.75;;;10.75;;
25263;SDS011;13211;51.796;5.808;2022-10-19T07:44:18;24.08;;;11.90;;
25263;SDS011;13211;51.796;5.808;2022-10-19T07:46:46;22.92;;;11.75;;
25263;SDS011;13211;51.796;5.808;2022-10-19T07:49:14;22.30;;;11.32;;
25263;SDS011;13211;51.796;5.808;2022-10-19T07:51:44;21.23;;;10.20;;
25263;SDS011;13211;51.796;5.808;2022-10-19T07:54:12;24.58;;;8.73;;
25263;SDS011;13211;51.796;5.808;2022-10-19T07:56:39;17.85;;;8.15;;
25263;SDS011;13211;51.796;5.808;2022-10-19T07:59:08;18.35;;;8.10;;
25263;SDS011;13211;51.796;5.808;2022-10-19T08:01:37;19.75;;;7.80;;
25263;SDS011;13211;51.796;5.808;2022-10-19T08:04:10;15.98;;;6.75;;
25263;SDS011;13211;51.796;5.808;2022-10-19T08:06:57;18.88;;;7.43;;
25263;SDS011;13211;51.796;5.808;2022-10-19T08:09:25;15.55;;;6.30;;
25263;SDS011;13211;51.796;5.808;2022-10-19T08:12:13;13.50;;;5.53;;
25263;SDS011;13211;51.796;5.808;2022-10-19T08:14:44;16.52;;;6.10;;
25263;SDS011;13211;51.796;5.808;2022-10-19T08:17:13;16.27;;;5.60;;
25263;SDS011;13211;51.796;5.808;2022-10-19T08:19:43;13.23;;;5.55;;
25263;SDS011;13211;51.796;5.808;2022-10-19T08:22:11;13.68;;;4.80;;
25263;SDS011;13211;51.796;5.808;2022-10-19T08:24:39;17.17;;;5.40;;
25263;SDS011;13211;51.796;5.808;2022-10-19T08:27:07;15.82;;;5.45;;
25263;SDS011;13211;51.796;5.808;2022-10-19T08:29:34;14.38;;;5.10;;
25263;SDS011;13211;51.796;5.808;2022-10-19T08:32:02;12.23;;;5.15;;
25263;SDS011;13211;51.796;5.808;2022-10-19T08:34:29;17.25;;;5.25;;
25263;SDS011;13211;51.796;5.808;2022-10-19T08:36:59;14.63;;;4.95;;
25263;SDS011;13211;51.796;5.808;2022-10-19T08:39:40;13.77;;;5.28;;
25263;SDS011;13211;51.796;5.808;2022-10-19T08:42:15;17.77;;;5.13;;
25263;SDS011;13211;51.796;5.808;2022-10-19T08:44:57;12.48;;;4.70;;
25263;SDS011;13211;51.796;5.808;2022-10-19T08:50:08;9.23;;;4.50;;
25263;SDS011;13211;51.796;5.808;2022-10-19T08:52:40;19.58;;;4.70;;
25263;SDS011;13211;51.796;5.808;2022-10-19T08:55:16;13.68;;;5.30;;
25263;SDS011;13211;51.796;5.808;2022-10-19T09:05:42;12.10;;;4.20;;
25263;SDS011;13211;51.796;5.808;2022-10-19T09:08:11;10.55;;;3.90;;
25263;SDS011;13211;51.796;5.808;2022-10-19T09:10:45;11.82;;;4.20;;
25263;SDS011;13211;51.796;5.808;2022-10-19T09:15:48;11.43;;;4.47;;
25263;SDS011;13211;51.796;5.808;2022-10-19T09:18:23;15.75;;;4.53;;
25263;SDS011;13211;51.796;5.808;2022-10-19T09:20:57;12.88;;;4.32;;
25263;SDS011;13211;51.796;5.808;2022-10-19T09:26:01;15.07;;;4.43;;
25263;SDS011;13211;51.796;5.808;2022-10-19T09:31:37;8.40;;;4.03;;
25263;SDS011;13211;51.796;5.808;2022-10-19T09:36:35;14.25;;;3.95;;
25263;SDS011;13211;51.796;5.808;2022-10-19T09:39:16;15.55;;;3.28;;
25263;SDS011;13211;51.796;5.808;2022-10-19T09:41:48;9.00;;;3.03;;
25263;SDS011;13211;51.796;5.808;2022-10-19T09:44:22;14.65;;;3.00;;
25263;SDS011;13211;51.796;5.808;2022-10-19T09:46:51;11.60;;;2.50;;
25263;SDS011;13211;51.796;5.808;2022-10-19T09:49:41;7.90;;;2.00;;
25263;SDS011;13211;51.796;5.808;2022-10-19T09:57:47;3.45;;;1.65;;
25263;SDS011;13211;51.796;5.808;2022-10-19T10:00:18;6.15;;;1.48;;
25263;SDS011;13211;51.796;5.808;2022-10-19T10:02:50;10.50;;;1.95;;
25263;SDS011;13211;51.796;5.808;2022-10-19T10:05:31;9.05;;;1.92;;
25263;SDS011;13211;51.796;5.808;2022-10-19T10:07:59;10.35;;;1.77;;
25263;SDS011;13211;51.796;5.808;2022-10-19T10:10:48;6.88;;;1.42;;
25263;SDS011;13211;51.796;5.808;2022-10-19T10:13:22;10.38;;;2.28;;
25263;SDS011;13211;51.796;5.808;2022-10-19T10:15:54;10.32;;;2.40;;
25263;SDS011;13211;51.796;5.808;2022-10-19T10:18:22;9.73;;;2.83;;
25263;SDS011;13211;51.796;5.808;2022-10-19T10:20:59;8.32;;;2.17;;
25263;SDS011;13211;51.796;5.808;2022-10-19T10:23:30;11.50;;;2.10;;
25263;SDS011;13211;51.796;5.808;2022-10-19T10:26:01;6.82;;;1.73;;
25263;SDS011;13211;51.796;5.808;2022-10-19T10:28:29;4.93;;;1.70;;
25263;SDS011;13211;51.796;5.808;2022-10-19T10:31:01;8.63;;;1.98;;
25263;SDS011;13211;51.796;5.808;2022-10-19T10:33:30;5.75;;;1.63;;
25263;SDS011;13211;51.796;5.808;2022-10-19T10:36:10;9.15;;;1.40;;
25263;SDS011;13211;51.796;5.808;2022-10-19T10:38:40;10.20;;;1.38;;
25263;SDS011;13211;51.796;5.808;2022-10-19T10:41:13;5.10;;;1.20;;
25263;SDS011;13211;51.796;5.808;2022-10-19T10:43:49;4.60;;;1.05;;
25263;SDS011;13211;51.796;5.808;2022-10-19T10:46:20;4.90;;;1.27;;
25263;SDS011;13211;51.796;5.808;2022-10-19T10:48:54;8.88;;;1.27;;
25263;SDS011;13211;51.796;5.808;2022-10-19T10:54:24;6.80;;;1.13;;
25263;SDS011;13211;51.796;5.808;2022-10-19T11:05:24;4.40;;;1.02;;
25263;SDS011;13211;51.796;5.808;2022-10-19T11:10:32;2.28;;;1.00;;
25263;SDS011;13211;51.796;5.808;2022-10-19T11:13:07;4.78;;;1.20;;
25263;SDS011;13211;51.796;5.808;2022-10-19T11:15:38;5.57;;;1.45;;
25263;SDS011;13211;51.796;5.808;2022-10-19T11:18:31;9.60;;;1.50;;
25263;SDS011;13211;51.796;5.808;2022-10-19T11:21:03;7.17;;;1.70;;
25263;SDS011;13211;51.796;5.808;2022-10-19T11:41:37;5.68;;;1.42;;
25263;SDS011;13211;51.796;5.808;2022-10-19T11:49:20;8.00;;;1.38;;
25263;SDS011;13211;51.796;5.808;2022-10-19T11:52:15;7.45;;;1.60;;
25263;SDS011;13211;51.796;5.808;2022-10-19T12:14:37;7.20;;;1.60;;
25263;SDS011;13211;51.796;5.808;2022-10-19T12:17:07;9.90;;;1.70;;
25263;SDS011;13211;51.796;5.808;2022-10-19T12:19:55;5.90;;;1.73;;
25263;SDS011;13211;51.796;5.808;2022-10-19T12:22:25;7.75;;;1.60;;
25263;SDS011;13211;51.796;5.808;2022-10-19T12:24:54;4.70;;;1.80;;
25263;SDS011;13211;51.796;5.808;2022-10-19T12:27:34;7.20;;;2.40;;
25263;SDS011;13211;51.796;5.808;2022-10-19T12:30:06;9.05;;;2.22;;
25263;SDS011;13211;51.796;5.808;2022-10-19T12:32:37;8.57;;;3.30;;
25263;SDS011;13211;51.796;5.808;2022-10-19T12:35:07;8.30;;;3.05;;
25263;SDS011;13211;51.796;5.808;2022-10-19T12:37:40;11.38;;;3.40;;
25263;SDS011;13211;51.796;5.808;2022-10-19T12:40:18;6.97;;;3.20;;
25263;SDS011;13211;51.796;5.808;2022-10-19T12:45:43;8.88;;;2.40;;
25263;SDS011;13211;51.796;5.808;2022-10-19T12:48:15;8.40;;;2.47;;
25263;SDS011;13211;51.796;5.808;2022-10-19T12:56:05;6.90;;;1.98;;
25263;SDS011;13211;51.796;5.808;2022-10-19T13:01:01;6.13;;;1.60;;
25263;SDS011;13211;51.796;5.808;2022-10-19T13:03:30;4.70;;;2.00;;
25263;SDS011;13211;51.796;5.808;2022-10-19T13:06:00;5.55;;;1.67;;
25263;SDS011;13211;51.796;5.808;2022-10-19T13:08:29;7.32;;;1.70;;
25263;SDS011;13211;51.796;5.808;2022-10-19T13:16:32;7.25;;;1.90;;
25263;SDS011;13211;51.796;5.808;2022-10-19T13:29:26;4.22;;;1.58;;
25263;SDS011;13211;51.796;5.808;2022-10-19T13:31:54;9.10;;;1.63;;
25263;SDS011;13211;51.796;5.808;2022-10-19T13:34:29;10.30;;;1.80;;
25263;SDS011;13211;51.796;5.808;2022-10-19T13:36:58;5.13;;;2.17;;
25263;SDS011;13211;51.796;5.808;2022-10-19T13:39:26;5.32;;;1.50;;
25263;SDS011;13211;51.796;5.808;2022-10-19T13:41:54;11.05;;;1.70;;
25263;SDS011;13211;51.796;5.808;2022-10-19T13:44:25;6.40;;;1.58;;
25263;SDS011;13211;51.796;5.808;2022-10-19T14:00:20;9.73;;;1.30;;
25263;SDS011;13211;51.796;5.808;2022-10-19T14:08:10;8.00;;;1.65;;
25263;SDS011;13211;51.796;5.808;2022-10-19T14:10:40;4.25;;;1.48;;
25263;SDS011;13211;51.796;5.808;2022-10-19T14:13:26;6.75;;;1.77;;
25263;SDS011;13211;51.796;5.808;2022-10-19T14:15:54;6.80;;;1.52;;
25263;SDS011;13211;51.796;5.808;2022-10-19T14:18:29;6.45;;;1.55;;
25263;SDS011;13211;51.796;5.808;2022-10-19T14:21:04;9.73;;;1.60;;
25263;SDS011;13211;51.796;5.808;2022-10-19T14:23:33;4.22;;;1.40;;
25263;SDS011;13211;51.796;5.808;2022-10-19T14:26:03;7.72;;;2.15;;
25263;SDS011;13211;51.796;5.808;2022-10-19T14:28:31;7.32;;;1.70;;
25263;SDS011;13211;51.796;5.808;2022-10-19T14:31:00;5.35;;;1.63;;
25263;SDS011;13211;51.796;5.808;2022-10-19T14:33:32;6.13;;;1.92;;
25263;SDS011;13211;51.796;5.808;2022-10-19T14:36:00;4.97;;;1.60;;
25263;SDS011;13211;51.796;5.808;2022-10-19T14:38:31;2.72;;;1.60;;
25263;SDS011;13211;51.796;5.808;2022-10-19T14:41:02;9.55;;;2.13;;
25263;SDS011;13211;51.796;5.808;2022-10-19T14:43:30;7.82;;;1.60;;
25263;SDS011;13211;51.796;5.808;2022-10-19T14:48:35;6.55;;;1.83;;
25263;SDS011;13211;51.796;5.808;2022-10-19T14:51:04;10.30;;;2.30;;
25263;SDS011;13211;51.796;5.808;2022-10-19T14:56:07;9.50;;;2.17;;
25263;SDS011;13211;51.796;5.808;2022-10-19T14:58:37;7.82;;;2.15;;
25263;SDS011;13211;51.796;5.808;2022-10-19T15:01:06;4.35;;;1.70;;
25263;SDS011;13211;51.796;5.808;2022-10-19T15:03:34;6.45;;;2.15;;
25263;SDS011;13211;51.796;5.808;2022-10-19T15:06:12;4.93;;;2.10;;
25263;SDS011;13211;51.796;5.808;2022-10-19T15:08:44;9.63;;;2.83;;
25263;SDS011;13211;51.796;5.808;2022-10-19T15:13:55;9.80;;;2.15;;
25263;SDS011;13211;51.796;5.808;2022-10-19T15:16:29;11.32;;;3.50;;
25263;SDS011;13211;51.796;5.808;2022-10-19T15:19:01;5.80;;;2.67;;
25263;SDS011;13211;51.796;5.808;2022-10-19T15:21:30;13.00;;;3.47;;
25263;SDS011;13211;51.796;5.808;2022-10-19T15:24:06;8.10;;;2.70;;
25263;SDS011;13211;51.796;5.808;2022-10-19T15:26:34;13.40;;;3.25;;
25263;SDS011;13211;51.796;5.808;2022-10-19T15:29:07;13.05;;;3.60;;
25263;SDS011;13211;51.796;5.808;2022-10-19T15:31:37;13.73;;;4.45;;
25263;SDS011;13211;51.796;5.808;2022-10-19T15:34:26;14.23;;;4.97;;
25263;SDS011;13211;51.796;5.808;2022-10-19T15:37:12;14.85;;;4.55;;
25263;SDS011;13211;51.796;5.808;2022-10-19T15:39:42;10.85;;;4.82;;
25263;SDS011;13211;51.796;5.808;2022-10-19T15:44:56;18.52;;;5.03;;
25263;SDS011;13211;51.796;5.808;2022-10-19T15:47:24;12.07;;;5.13;;
25263;SDS011;13211;51.796;5.808;2022-10-19T15:49:54;16.00;;;6.25;;
25263;SDS011;13211;51.796;5.808;2022-10-19T15:52:23;19.05;;;6.65;;
25263;SDS011;13211;51.796;5.808;2022-10-19T15:54:56;13.43;;;5.80;;
25263;SDS011;13211;51.796;5.808;2022-10-19T15:57:34;14.65;;;6.88;;
25263;SDS011;13211;51.796;5.808;2022-10-19T16:00:13;14.50;;;6.18;;
25263;SDS011;13211;51.796;5.808;2022-10-19T16:02:41;17.20;;;6.63;;
25263;SDS011;13211;51.796;5.808;2022-10-19T16:05:08;15.43;;;6.50;;
25263;SDS011;13211;51.796;5.808;2022-10-19T16:07:38;10.23;;;5.63;;
25263;SDS011;13211;51.796;5.808;2022-10-19T16:10:07;12.93;;;6.03;;
25263;SDS011;13211;51.796;5.808;2022-10-19T16:12:35;16.02;;;5.82;;
25263;SDS011;13211;51.796;5.808;2022-10-19T16:15:03;13.75;;;5.75;;
25263;SDS011;13211;51.796;5.808;2022-10-19T16:17:31;17.70;;;5.18;;
25263;SDS011;13211;51.796;5.808;2022-10-19T16:19:59;17.00;;;5.07;;
25263;SDS011;13211;51.796;5.808;2022-10-19T16:22:27;9.60;;;4.57;;
25263;SDS011;13211;51.796;5.808;2022-10-19T16:24:55;13.23;;;5.05;;
25263;SDS011;13211;51.796;5.808;2022-10-19T16:27:22;15.02;;;4.82;;
25263;SDS011;13211;51.796;5.808;2022-10-19T16:29:50;12.15;;;4.53;;
25263;SDS011;13211;51.796;5.808;2022-10-19T16:32:20;13.00;;;4.50;;
25263;SDS011;13211;51.796;5.808;2022-10-19T16:34:49;12.65;;;4.50;;
25263;SDS011;13211;51.796;5.808;2022-10-19T16:37:19;11.80;;;4.50;;
25263;SDS011;13211;51.796;5.808;2022-10-19T16:39:47;7.30;;;4.30;;
25263;SDS011;13211;51.796;5.808;2022-10-19T16:42:15;13.73;;;4.75;;
25263;SDS011;13211;51.796;5.808;2022-10-19T16:44:43;11.70;;;4.95;;
25263;SDS011;13211;51.796;5.808;2022-10-19T16:47:11;10.20;;;4.20;;
25263;SDS011;13211;51.796;5.808;2022-10-19T16:49:39;11.00;;;3.65;;
25263;SDS011;13211;51.796;5.808;2022-10-19T16:52:06;13.88;;;3.70;;
25263;SDS011;13211;51.796;5.808;2022-10-19T16:54:34;11.43;;;4.38;;
25263;SDS011;13211;51.796;5.808;2022-10-19T16:57:02;10.25;;;3.88;;
25263;SDS011;13211;51.796;5.808;2022-10-19T16:59:35;11.93;;;3.97;;
25263;SDS011;13211;51.796;5.808;2022-10-19T17:02:02;17.80;;;3.97;;
25263;SDS011;13211;51.796;5.808;2022-10-19T17:04:30;11.32;;;3.45;;
25263;SDS011;13211;51.796;5.808;2022-10-19T17:06:57;8.98;;;3.55;;
25263;SDS011;13211;51.796;5.808;2022-10-19T17:09:25;11.50;;;3.90;;
25263;SDS011;13211;51.796;5.808;2022-10-19T17:12:09;10.52;;;3.50;;
25263;SDS011;13211;51.796;5.808;2022-10-19T17:14:37;10.93;;;3.55;;
25263;SDS011;13211;51.796;5.808;2022-10-19T17:17:05;10.65;;;3.50;;
25263;SDS011;13211;51.796;5.808;2022-10-19T17:19:34;13.13;;;3.60;;
25263;SDS011;13211;51.796;5.808;2022-10-19T17:22:02;14.05;;;3.55;;
25263;SDS011;13211;51.796;5.808;2022-10-19T17:24:31;13.00;;;3.33;;
25263;SDS011;13211;51.796;5.808;2022-10-19T17:26:59;11.52;;;3.75;;
25263;SDS011;13211;51.796;5.808;2022-10-19T17:29:29;14.52;;;3.78;;
25263;SDS011;13211;51.796;5.808;2022-10-19T17:31:56;11.63;;;3.40;;
25263;SDS011;13211;51.796;5.808;2022-10-19T17:34:24;12.75;;;3.58;;
25263;SDS011;13211;51.796;5.808;2022-10-19T17:36:53;15.27;;;3.90;;
25263;SDS011;13211;51.796;5.808;2022-10-19T17:39:22;10.70;;;3.28;;
25263;SDS011;13211;51.796;5.808;2022-10-19T17:41:55;7.10;;;3.28;;
25263;SDS011;13211;51.796;5.808;2022-10-19T17:44:31;12.90;;;3.25;;
25263;SDS011;13211;51.796;5.808;2022-10-19T17:46:58;12.25;;;3.75;;
25263;SDS011;13211;51.796;5.808;2022-10-19T17:49:26;11.57;;;3.17;;
25263;SDS011;13211;51.796;5.808;2022-10-19T17:51:55;7.90;;;3.25;;
25263;SDS011;13211;51.796;5.808;2022-10-19T17:54:23;13.55;;;3.72;;
25263;SDS011;13211;51.796;5.808;2022-10-19T17:56:52;8.95;;;3.33;;
25263;SDS011;13211;51.796;5.808;2022-10-19T17:59:19;11.90;;;3.80;;
25263;SDS011;13211;51.796;5.808;2022-10-19T18:02:05;10.65;;;3.35;;
25263;SDS011;13211;51.796;5.808;2022-10-19T18:04:34;8.55;;;3.60;;
25263;SDS011;13211;51.796;5.808;2022-10-19T18:07:02;11.45;;;3.33;;
25263;SDS011;13211;51.796;5.808;2022-10-19T18:09:30;12.13;;;3.90;;
25263;SDS011;13211;51.796;5.808;2022-10-19T18:11:57;11.57;;;3.95;;
25263;SDS011;13211;51.796;5.808;2022-10-19T18:14:32;8.52;;;4.22;;
25263;SDS011;13211;51.796;5.808;2022-10-19T18:17:00;12.25;;;4.20;;
25263;SDS011;13211;51.796;5.808;2022-10-19T18:19:27;12.27;;;3.95;;
25263;SDS011;13211;51.796;5.808;2022-10-19T18:21:55;10.73;;;3.65;;
25263;SDS011;13211;51.796;5.808;2022-10-19T18:24:23;12.60;;;4.20;;
25263;SDS011;13211;51.796;5.808;2022-10-19T18:26:51;11.30;;;3.95;;
25263;SDS011;13211;51.796;5.808;2022-10-19T18:29:20;14.90;;;4.43;;
25263;SDS011;13211;51.796;5.808;2022-10-19T18:31:48;10.88;;;4.00;;
25263;SDS011;13211;51.796;5.808;2022-10-19T18:34:20;12.15;;;3.80;;
25263;SDS011;13211;51.796;5.808;2022-10-19T18:36:49;13.32;;;4.40;;
25263;SDS011;13211;51.796;5.808;2022-10-19T18:39:17;15.73;;;4.22;;
25263;SDS011;13211;51.796;5.808;2022-10-19T18:41:48;11.27;;;4.05;;
25263;SDS011;13211;51.796;5.808;2022-10-19T18:44:18;10.45;;;4.03;;
25263;SDS011;13211;51.796;5.808;2022-10-19T18:46:55;14.90;;;3.92;;
25263;SDS011;13211;51.796;5.808;2022-10-19T18:49:23;10.75;;;3.88;;
25263;SDS011;13211;51.796;5.808;2022-10-19T18:51:52;7.00;;;3.63;;
25263;SDS011;13211;51.796;5.808;2022-10-19T18:54:22;11.93;;;4.07;;
25263;SDS011;13211;51.796;5.808;2022-10-19T18:56:52;8.68;;;3.75;;
25263;SDS011;13211;51.796;5.808;2022-10-19T18:59:20;15.65;;;3.72;;
25263;SDS011;13211;51.796;5.808;2022-10-19T19:01:48;13.90;;;5.05;;
25263;SDS011;13211;51.796;5.808;2022-10-19T19:04:17;13.35;;;3.97;;
25263;SDS011;13211;51.796;5.808;2022-10-19T19:06:44;12.30;;;3.72;;
25263;SDS011;13211;51.796;5.808;2022-10-19T19:09:12;8.70;;;3.72;;
25263;SDS011;13211;51.796;5.808;2022-10-19T19:11:40;11.60;;;3.90;;
25263;SDS011;13211;51.796;5.808;2022-10-19T19:14:17;8.48;;;3.85;;
25263;SDS011;13211;51.796;5.808;2022-10-19T19:16:47;11.32;;;4.00;;
25263;SDS011;13211;51.796;5.808;2022-10-19T19:19:15;15.25;;;4.05;;
25263;SDS011;13211;51.796;5.808;2022-10-19T19:21:43;8.50;;;3.90;;
25263;SDS011;13211;51.796;5.808;2022-10-19T19:24:12;12.95;;;4.10;;
25263;SDS011;13211;51.796;5.808;2022-10-19T19:26:41;11.05;;;4.00;;
25263;SDS011;13211;51.796;5.808;2022-10-19T19:29:11;10.30;;;4.65;;
25263;SDS011;13211;51.796;5.808;2022-10-19T19:31:39;9.35;;;3.90;;
25263;SDS011;13211;51.796;5.808;2022-10-19T19:34:10;12.80;;;3.88;;
25263;SDS011;13211;51.796;5.808;2022-10-19T19:36:41;9.05;;;3.85;;
25263;SDS011;13211;51.796;5.808;2022-10-19T19:39:15;7.90;;;3.90;;
25263;SDS011;13211;51.796;5.808;2022-10-19T19:41:44;8.95;;;4.22;;
25263;SDS011;13211;51.796;5.808;2022-10-19T19:44:11;12.77;;;3.60;;
25263;SDS011;13211;51.796;5.808;2022-10-19T19:46:45;10.18;;;3.50;;
25263;SDS011;13211;51.796;5.808;2022-10-19T19:49:14;8.63;;;3.80;;
25263;SDS011;13211;51.796;5.808;2022-10-19T19:51:42;11.60;;;4.13;;
25263;SDS011;13211;51.796;5.808;2022-10-19T19:54:10;9.82;;;3.45;;
25263;SDS011;13211;51.796;5.808;2022-10-19T19:56:37;9.63;;;3.58;;
25263;SDS011;13211;51.796;5.808;2022-10-19T19:59:08;7.70;;;3.90;;
25263;SDS011;13211;51.796;5.808;2022-10-19T20:01:36;14.48;;;3.92;;